Time;durP1;ratioP1;P1;durP2;ratioP2;P2;SDS_P1;SDS_P2;PMS_P1;PMS_P2;Temp;Humidity;BMP_temperature;BMP_pressure;BME280_temperature;BME280_humidity;BME280_pressure;Samples;Min_cycle;Max_cycle;Signal;HPM_P1;HPM_P2
2023/09/07 00:00:28;;;;;;;3.75;2.55;;;;;;;16.70;100.00;101868.09;1033419;28;20065;-53
2023/09/07 00:01:03;;;;;;;2.80;2.60;;;;;;;16.50;100.00;101879.16;1036818;28;20038;-55
2023/09/07 00:01:38;;;;;;;3.08;2.10;;;;;;;16.31;100.00;101881.06;1039955;28;20428;-53
2023/09/07 00:02:16;;;;;;;2.42;2.20;;;;;;;16.22;100.00;101877.09;1041172;28;20041;-55
2023/09/07 00:03:06;;;;;;;;;;;;;;;16.18;100.00;101878.59;1041129;28;20594;-53
2023/09/07 00:03:41;;;;;;;2.38;2.13;;;;;;;16.17;100.00;101878.81;1036255;28;19953;-55
2023/09/07 00:04:17;;;;;;;10.98;2.38;;;;;;;16.34;100.00;101875.25;1036480;28;20120;-51
2023/09/07 00:04:57;;;;;;;5.90;2.15;;;;;;;16.52;100.00;101876.25;1032908;28;20042;-52
2023/09/07 00:05:33;;;;;;;3.97;2.40;;;;;;;16.58;100.00;101878.00;1036548;28;20440;-54
2023/09/07 00:06:39;;;;;;;2.22;2.03;;;;;;;16.67;100.00;101874.75;1037832;28;20060;-53
2023/09/07 00:07:16;;;;;;;2.47;2.25;;;;;;;16.70;100.00;101876.16;1036957;28;20104;-55
2023/09/07 00:08:02;;;;;;;3.05;2.42;;;;;;;16.43;100.00;101877.59;1039045;28;20073;-55
2023/09/07 00:08:37;;;;;;;1.80;1.70;;;;;;;16.30;100.00;101867.88;1040073;28;20057;-53
2023/09/07 00:09:11;;;;;;;2.13;2.03;;;;;;;16.32;100.00;101876.53;1035875;28;20042;-55
2023/09/07 00:09:43;;;;;;;2.47;1.88;;;;;;;16.42;100.00;101866.03;1036162;28;20049;-56
2023/09/07 00:10:17;;;;;;;4.25;2.47;;;;;;;16.52;100.00;101876.25;1033378;28;20057;-53
2023/09/07 00:10:50;;;;;;;6.47;2.30;;;;;;;16.59;100.00;101875.06;1031712;28;20532;-53
2023/09/07 00:11:32;;;;;;;;;;;;;;;16.63;100.00;101873.56;1032404;28;20040;-54
2023/09/07 00:12:21;;;;;;;1.85;1.48;;;;;;;16.64;100.00;101877.06;1031368;28;20392;-53
2023/09/07 00:13:05;;;;;;;1.50;1.40;;;;;;;16.62;100.00;101866.53;1031591;28;20047;-60
2023/09/07 00:13:48;;;;;;;1.52;1.40;;;;;;;16.59;100.00;101869.69;1033380;28;20050;-54
2023/09/07 00:14:28;;;;;;;1.10;1.10;;;;;;;16.50;100.00;101867.59;1029648;28;20046;-55
2023/09/07 00:15:10;;;;;;;1.20;1.10;;;;;;;16.53;100.00;101867.13;1029786;28;20064;-55
2023/09/07 00:15:42;;;;;;;0.95;0.95;;;;;;;16.37;100.00;101872.09;1027371;28;20129;-55
2023/09/07 00:16:23;;;;;;;2.25;1.42;;;;;;;16.20;100.00;101868.44;1032921;28;20053;-53
2023/09/07 00:17:09;;;;;;;3.85;1.27;;;;;;;15.77;100.00;101874.75;1037843;28;20038;-54
2023/09/07 00:17:42;;;;;;;4.47;2.17;;;;;;;15.67;100.00;101866.41;1031068;28;20046;-55
2023/09/07 00:18:22;;;;;;;1.90;1.80;;;;;;;15.53;100.00;101866.75;1032839;28;20066;-53
2023/09/07 00:19:03;;;;;;;3.45;2.33;;;;;;;15.47;100.00;101871.16;1029235;28;20071;-55
2023/09/07 00:19:48;;;;;;;2.67;2.47;;;;;;;15.64;100.00;101874.94;1029042;28;20043;-54
2023/09/07 00:20:33;;;;;;;1.58;1.48;;;;;;;15.94;100.00;101863.41;1032844;28;20046;-53
2023/09/07 00:21:13;;;;;;;1.67;0.73;;;;;;;16.07;100.00;101868.59;1032725;28;20041;-54
2023/09/07 00:22:03;;;;;;;1.33;1.23;;;;;;;16.08;100.00;101870.22;1026322;28;20528;-54
2023/09/07 00:22:47;;;;;;;2.95;2.28;;;;;;;15.96;100.00;101870.19;1032358;28;20050;-54
2023/09/07 00:23:22;;;;;;;;;;;;;;;15.84;100.00;101863.09;1033465;28;20038;-53
2023/09/07 00:23:54;;;;;;;1.90;1.80;;;;;;;15.71;100.00;101870.28;1035774;28;19921;-51
2023/09/07 00:24:26;;;;;;;2.67;2.47;;;;;;;15.50;100.00;101870.72;1036266;28;20400;-52
2023/09/07 00:25:10;;;;;;;3.50;2.00;;;;;;;15.47;100.00;101868.47;1036694;28;20048;-55
2023/09/07 00:25:42;;;;;;;1.98;1.88;;;;;;;15.53;100.00;101870.25;1034673;28;20054;-53
2023/09/07 00:26:14;;;;;;;5.47;1.90;;;;;;;15.51;100.00;101869.66;1035500;28;20390;-53
2023/09/07 00:26:45;;;;;;;4.43;2.42;;;;;;;15.33;100.00;101872.31;1037807;28;20045;-55
2023/09/07 00:27:33;;;;;;;2.35;2.20;;;;;;;15.15;100.00;101875.81;1037845;28;20068;-53
2023/09/07 00:28:09;;;;;;;2.55;1.98;;;;;;;15.34;100.00;101873.97;1028634;28;20097;-53
2023/09/07 00:28:41;;;;;;;3.85;2.35;;;;;;;15.40;100.00;101871.25;1027724;28;20125;-52
2023/09/07 00:29:13;;;;;;;4.13;3.03;;;;;;;15.37;100.00;101873.56;1023417;28;20136;-53
2023/09/07 00:29:47;;;;;;;3.03;2.25;;;;;;;15.54;100.00;101869.22;1025529;28;20415;-52
2023/09/07 00:30:21;;;;;;;2.05;1.95;;;;;;;15.81;100.00;101875.13;1032210;28;20049;-53
2023/09/07 00:30:53;;;;;;;3.63;2.83;;;;;;;15.96;100.00;101875.56;1032626;28;20045;-54
2023/09/07 00:31:28;;;;;;;5.40;2.67;;;;;;;16.03;100.00;101872.78;1031535;28;20035;-54
2023/09/07 00:32:10;;;;;;;2.35;2.10;;;;;;;15.90;100.00;101872.97;1033132;28;20050;-55
2023/09/07 00:32:56;;;;;;;5.65;2.00;;;;;;;15.73;100.00;101870.88;1033891;28;20062;-55
2023/09/07 00:33:34;;;;;;;3.97;2.03;;;;;;;15.73;100.00;101872.75;1039764;28;20056;-53
2023/09/07 00:34:06;;;;;;;5.93;1.60;;;;;;;15.58;100.00;101870.44;1034450;28;20512;-56
2023/09/07 00:34:38;;;;;;;2.15;1.77;;;;;;;15.59;100.00;101871.25;1031467;28;20149;-55
2023/09/07 00:35:10;;;;;;;4.80;1.85;;;;;;;15.60;100.00;101879.09;1031776;28;20077;-55
2023/09/07 00:35:41;;;;;;;3.10;2.55;;;;;;;15.46;100.00;101872.19;1031559;28;20140;-55
2023/09/07 00:36:13;;;;;;;3.70;2.47;;;;;;;15.42;100.00;101865.66;1031544;28;20046;-54
2023/09/07 00:36:50;;;;;;;4.97;2.95;;;;;;;15.48;100.00;101874.66;1039616;28;20045;-56
2023/09/07 00:37:23;;;;;;;3.58;3.20;;;;;;;15.59;100.00;101866.69;1042078;28;20042;-55
2023/09/07 00:38:11;;;;;;;2.80;1.85;;;;;;;15.85;100.00;101872.81;1039729;28;20045;-53
2023/09/07 00:38:43;;;;;;;3.83;3.50;;;;;;;15.92;100.00;101870.88;1035550;28;20049;-53
2023/09/07 00:39:14;;;;;;;2.17;2.03;;;;;;;15.71;100.00;101874.84;1035511;28;20508;-51
2023/09/07 00:39:49;;;;;;;3.97;3.28;;;;;;;15.64;100.00;101869.56;1035511;28;20554;-53
2023/09/07 00:40:22;;;;;;;2.45;2.28;;;;;;;15.46;100.00;101867.66;1036409;28;20038;-53
2023/09/07 00:40:57;;;;;;;2.88;2.58;;;;;;;15.49;100.00;101874.44;1033778;28;20543;-53
2023/09/07 00:41:41;;;;;;;4.50;2.97;;;;;;;15.50;100.00;101867.19;1033682;28;20046;-52
2023/09/07 00:42:41;;;;;;;3.72;3.17;;;;;;;15.24;100.00;101876.34;1035082;28;20532;-55
2023/09/07 00:43:16;;;;;;;3.08;2.58;;;;;;;15.13;100.00;101873.38;1036551;28;20531;-54
2023/09/07 00:43:55;;;;;;;2.65;2.28;;;;;;;15.02;100.00;101878.63;1033544;28;20050;-53
2023/09/07 00:44:42;;;;;;;3.28;2.05;;;;;;;14.96;100.00;101877.63;1031927;28;20051;-53
2023/09/07 00:45:15;;;;;;;3.83;2.90;;;;;;;15.09;100.00;101877.53;1036396;28;20106;-55
2023/09/07 00:45:55;;;;;;;8.23;2.58;;;;;;;15.29;100.00;101876.50;1031281;28;20066;-52
2023/09/07 00:46:34;;;;;;;4.00;3.70;;;;;;;15.14;100.00;101877.69;1027797;28;20036;-53
2023/09/07 00:47:15;;;;;;;5.05;2.53;;;;;;;15.18;100.00;101878.06;1035414;28;20038;-52
2023/09/07 00:47:50;;;;;;;2.30;2.10;;;;;;;15.52;100.00;101870.47;1032992;28;20102;-54
2023/09/07 00:48:26;;;;;;;2.20;2.00;;;;;;;15.73;100.00;101872.75;1033916;28;20505;-54
2023/09/07 00:49:06;;;;;;;2.75;2.55;;;;;;;15.85;100.00;101870.13;1029525;28;20058;-53
2023/09/07 00:49:50;;;;;;;7.68;3.30;;;;;;;16.01;100.00;101875.72;1027590;28;20529;-55
2023/09/07 00:50:22;;;;;;;3.05;2.78;;;;;;;15.86;100.00;101866.38;1027528;28;20157;-55
2023/09/07 00:51:03;;;;;;;4.38;2.22;;;;;;;15.66;100.00;101872.84;1030986;28;20118;-52
2023/09/07 00:51:41;;;;;;;3.03;2.50;;;;;;;15.48;100.00;101875.47;1030947;28;20054;-55
2023/09/07 00:52:13;;;;;;;5.82;2.78;;;;;;;15.34;100.00;101869.44;1031764;28;20068;-55
2023/09/07 00:52:46;;;;;;;5.28;2.67;;;;;;;15.38;100.00;101864.44;1027602;28;20464;-54
2023/09/07 00:53:17;;;;;;;3.50;2.70;;;;;;;15.75;100.00;101871.47;1027982;28;20174;-56
2023/09/07 00:53:50;;;;;;;3.05;2.85;;;;;;;15.90;100.00;101872.97;1027748;28;20047;-53
2023/09/07 00:54:22;;;;;;;5.18;2.75;;;;;;;15.92;100.00;101865.50;1027044;28;20049;-52
2023/09/07 00:54:54;;;;;;;6.45;3.35;;;;;;;15.94;100.00;101866.09;1027392;28;20061;-51
2023/09/07 00:55:27;;;;;;;3.97;3.58;;;;;;;16.05;100.00;101868.81;1024486;28;20521;-53
2023/09/07 00:55:59;;;;;;;5.88;3.45;;;;;;;16.07;100.00;101869.41;1027706;28;20043;-53
2023/09/07 00:56:32;;;;;;;3.75;3.45;;;;;;;16.11;100.00;101869.78;1024034;28;20043;-53
2023/09/07 00:57:10;;;;;;;3.70;3.40;;;;;;;16.19;100.00;101872.16;1028094;28;20161;-51
2023/09/07 00:57:43;;;;;;;3.25;2.92;;;;;;;16.13;100.00;101865.00;1023427;29;20050;-54
2023/09/07 00:58:15;;;;;;;3.67;3.38;;;;;;;16.16;100.00;101867.25;1017092;29;20160;-55
2023/09/07 00:58:47;;;;;;;3.45;2.58;;;;;;;16.14;100.00;101868.50;1013708;29;20072;-55
2023/09/07 00:59:20;;;;;;;3.95;3.65;;;;;;;16.12;100.00;101873.28;1016172;29;20036;-55
2023/09/07 00:59:52;;;;;;;3.65;3.35;;;;;;;16.01;100.00;101866.81;1020735;28;20570;-55
2023/09/07 01:00:27;;;;;;;4.43;3.42;;;;;;;15.79;100.00;101865.66;1028610;28;20568;-55
2023/09/07 01:01:03;;;;;;;2.67;2.47;;;;;;;15.82;100.00;101865.19;1033071;28;20039;-55
2023/09/07 01:01:35;;;;;;;3.88;3.58;;;;;;;15.64;100.00;101863.38;1035715;28;20049;-55
2023/09/07 01:02:13;;;;;;;4.20;3.83;;;;;;;15.55;100.00;101865.47;1036205;28;20041;-53
2023/09/07 01:02:46;;;;;;;3.80;3.28;;;;;;;15.47;100.00;101863.09;1036113;28;20049;-55
2023/09/07 01:03:18;;;;;;;8.20;2.92;;;;;;;15.28;100.00;101866.81;1035871;28;20041;-55
2023/09/07 01:03:56;;;;;;;3.80;3.50;;;;;;;15.35;100.00;101863.03;1035584;28;20083;-55
2023/09/07 01:04:32;;;;;;;4.18;3.78;;;;;;;15.37;100.00;101860.13;1031477;28;20038;-55
2023/09/07 01:05:05;;;;;;;3.65;3.40;;;;;;;15.34;100.00;101855.19;1031478;28;20038;-56
2023/09/07 01:05:46;;;;;;;6.22;4.10;;;;;;;15.20;100.00;101857.19;1027429;28;20051;-55
2023/09/07 01:06:35;;;;;;;3.70;3.40;;;;;;;15.26;100.00;101866.22;1026570;28;20052;-55
2023/09/07 01:07:17;;;;;;;4.63;4.22;;;;;;;15.24;100.00;101865.63;1027770;28;20054;-55
2023/09/07 01:07:55;;;;;;;8.23;3.85;;;;;;;15.23;100.00;101863.97;1027433;28;20046;-55
2023/09/07 01:08:32;;;;;;;5.35;3.63;;;;;;;15.19;100.00;101860.91;1027154;28;20058;-55
2023/09/07 01:09:11;;;;;;;3.10;2.90;;;;;;;15.35;100.00;101863.03;1026438;28;20055;-55
2023/09/07 01:09:44;;;;;;;3.55;3.25;;;;;;;15.29;100.00;101865.75;1029503;28;20453;-55
2023/09/07 01:10:18;;;;;;;2.90;2.40;;;;;;;15.20;100.00;101862.56;1031313;28;20053;-54
2023/09/07 01:10:51;;;;;;;3.20;3.00;;;;;;;15.28;100.00;101866.81;1027424;28;20146;-55
2023/09/07 01:11:23;;;;;;;6.00;3.95;;;;;;;15.17;100.00;101863.00;1027747;28;20062;-55
2023/09/07 01:11:57;;;;;;;4.97;3.70;;;;;;;15.02;100.00;101860.66;1024763;28;20059;-55
2023/09/07 01:12:31;;;;;;;5.15;4.25;;;;;;;14.83;100.00;101859.00;1028446;28;20045;-55
2023/09/07 01:13:03;;;;;;;8.32;4.22;;;;;;;14.89;100.00;101860.78;1031062;28;20042;-54
2023/09/07 01:13:35;;;;;;;4.95;3.42;;;;;;;14.97;100.00;101860.50;1032915;28;20533;-55
2023/09/07 01:14:06;;;;;;;5.55;4.50;;;;;;;15.04;100.00;101863.94;1035911;28;20429;-55
2023/09/07 01:14:38;;;;;;;4.47;4.07;;;;;;;15.20;100.00;101862.56;1034903;28;20046;-54
2023/09/07 01:15:10;;;;;;;4.40;4.00;;;;;;;15.32;100.00;101862.63;1035448;28;20103;-56
2023/09/07 01:15:42;;;;;;;4.07;3.60;;;;;;;15.28;100.00;101858.75;1031610;28;20050;-55
2023/09/07 01:16:14;;;;;;;5.60;4.35;;;;;;;15.32;100.00;101858.09;1031245;28;20105;-54
2023/09/07 01:16:46;;;;;;;6.70;4.63;;;;;;;15.46;100.00;101856.09;1031419;28;20519;-55
2023/09/07 01:17:18;;;;;;;4.43;4.00;;;;;;;15.42;100.00;101853.03;1025735;28;20039;-54
2023/09/07 01:17:50;;;;;;;7.50;3.55;;;;;;;15.25;100.00;101856.53;1027481;28;20090;-55
2023/09/07 01:18:22;;;;;;;3.33;2.97;;;;;;;14.96;100.00;101856.19;1027237;28;20534;-55
2023/09/07 01:19:00;;;;;;;4.82;3.20;;;;;;;14.93;100.00;101856.63;1023655;29;20066;-55
2023/09/07 01:19:32;;;;;;;3.83;3.05;;;;;;;14.89;100.00;101860.78;1025039;28;20114;-55
2023/09/07 01:20:11;;;;;;;5.80;3.80;;;;;;;14.84;100.00;101858.78;1024231;28;20106;-55
2023/09/07 01:20:46;;;;;;;8.18;3.60;;;;;;;14.75;100.00;101860.06;1025422;28;20399;-53
2023/09/07 01:21:18;;;;;;;4.07;3.00;;;;;;;14.55;100.00;101853.22;1027396;28;20050;-53
2023/09/07 01:21:50;;;;;;;4.47;2.42;;;;;;;14.48;100.00;101859.44;1025180;28;20044;-52
2023/09/07 01:22:22;;;;;;;3.17;2.97;;;;;;;14.63;100.00;101861.00;1024320;28;20084;-53
2023/09/07 01:22:55;;;;;;;4.32;2.30;;;;;;;14.58;100.00;101858.16;1023440;29;20046;-53
2023/09/07 01:23:27;;;;;;;3.90;3.00;;;;;;;14.58;100.00;101863.53;1022679;29;20066;-54
2023/09/07 01:23:59;;;;;;;5.20;2.58;;;;;;;14.70;100.00;101862.59;1020091;29;20130;-53
2023/09/07 01:24:31;;;;;;;3.20;3.00;;;;;;;14.64;100.00;101865.31;1024612;28;20114;-53
2023/09/07 01:25:04;;;;;;;2.38;2.05;;;;;;;14.64;100.00;101863.47;1022771;29;20829;-53
2023/09/07 01:25:36;;;;;;;2.20;1.92;;;;;;;14.67;100.00;101864.88;1024490;28;20304;-53
2023/09/07 01:26:09;;;;;;;3.50;3.17;;;;;;;14.76;100.00;101866.25;1023145;29;20051;-53
2023/09/07 01:26:42;;;;;;;3.42;1.52;;;;;;;14.76;100.00;101863.56;1024678;28;20047;-53
2023/09/07 01:27:14;;;;;;;2.92;1.80;;;;;;;14.81;100.00;101858.38;1031376;28;20249;-53
2023/09/07 01:27:46;;;;;;;2.20;2.08;;;;;;;14.82;100.00;101849.31;1028460;28;20532;-51
2023/09/07 01:28:20;;;;;;;2.33;2.13;;;;;;;14.89;100.00;101854.59;1027006;28;20046;-52
2023/09/07 01:28:52;;;;;;;1.75;1.42;;;;;;;14.78;100.00;101851.56;1023224;29;20434;-53
2023/09/07 01:29:26;;;;;;;2.42;2.22;;;;;;;14.73;100.00;101851.41;1019814;29;20078;-53
2023/09/07 01:29:58;;;;;;;2.50;2.25;;;;;;;14.81;100.00;101851.16;1024223;28;20122;-52
2023/09/07 01:30:30;;;;;;;3.40;2.80;;;;;;;15.14;100.00;101852.72;1023149;29;20525;-52
2023/09/07 01:31:02;;;;;;;3.08;2.72;;;;;;;15.37;100.00;101852.91;1024889;28;20098;-52
2023/09/07 01:31:37;;;;;;;7.95;3.85;;;;;;;15.35;100.00;101848.78;1026847;28;20057;-55
2023/09/07 01:32:13;;;;;;;5.72;3.25;;;;;;;15.28;100.00;101845.34;1027654;28;20054;-53
2023/09/07 01:32:45;;;;;;;7.57;3.15;;;;;;;15.14;100.00;101847.34;1027333;28;20124;-53
2023/09/07 01:33:17;;;;;;;3.45;3.15;;;;;;;15.11;100.00;101842.44;1024515;28;20046;-53
2023/09/07 01:33:49;;;;;;;2.65;2.13;;;;;;;15.11;100.00;101845.13;1027302;28;20051;-54
2023/09/07 01:34:20;;;;;;;5.43;3.60;;;;;;;15.09;100.00;101845.34;1027267;28;20050;-52
2023/09/07 01:34:56;;;;;;;3.42;3.05;;;;;;;15.02;100.00;101844.56;1025670;28;20074;-52
2023/09/07 01:35:28;;;;;;;8.15;3.15;;;;;;;15.02;100.00;101849.91;1026010;28;20122;-52
2023/09/07 01:36:01;;;;;;;3.17;2.95;;;;;;;14.94;100.00;101847.53;1023523;29;20043;-53
2023/09/07 01:36:33;;;;;;;2.83;2.63;;;;;;;14.91;100.00;101842.59;1023223;29;20126;-52
2023/09/07 01:37:05;;;;;;;3.80;3.38;;;;;;;14.82;100.00;101846.63;1019610;29;20047;-53
2023/09/07 01:37:36;;;;;;;4.07;3.30;;;;;;;14.89;100.00;101839.31;1023617;28;20062;-53
2023/09/07 01:38:08;;;;;;;4.85;3.22;;;;;;;14.98;100.00;101848.72;1023412;29;20039;-53
2023/09/07 01:38:40;;;;;;;4.93;3.65;;;;;;;14.86;100.00;101847.81;1023326;28;20070;-53
2023/09/07 01:39:12;;;;;;;4.57;4.00;;;;;;;14.90;100.00;101843.66;1023474;28;20043;-53
2023/09/07 01:39:43;;;;;;;3.97;2.85;;;;;;;14.89;100.00;101852.75;1028191;28;20042;-53
2023/09/07 01:40:15;;;;;;;5.15;3.47;;;;;;;14.93;100.00;101845.88;1030933;28;20047;-53
2023/09/07 01:40:47;;;;;;;11.50;3.45;;;;;;;14.84;100.00;101848.03;1027295;28;20476;-53
2023/09/07 01:41:19;;;;;;;2.33;2.17;;;;;;;14.78;100.00;101843.53;1028101;28;20405;-53
2023/09/07 01:41:50;;;;;;;3.50;3.20;;;;;;;14.76;100.00;101844.78;1031444;28;20041;-53
2023/09/07 01:42:22;;;;;;;4.50;4.10;;;;;;;14.71;100.00;101848.13;1027473;28;20051;-52
2023/09/07 01:42:54;;;;;;;4.30;3.90;;;;;;;14.60;100.00;101842.66;1031615;28;20046;-53
2023/09/07 01:43:26;;;;;;;4.93;3.15;;;;;;;14.79;100.00;101839.84;1031235;28;20436;-53
2023/09/07 01:43:57;;;;;;;2.83;2.20;;;;;;;14.77;100.00;101843.75;1030508;28;20039;-52
2023/09/07 01:44:29;;;;;;;5.55;4.55;;;;;;;14.59;100.00;101843.72;1028004;28;20516;-53
2023/09/07 01:45:01;;;;;;;5.18;4.45;;;;;;;14.58;100.00;101844.75;1031170;28;20161;-53
2023/09/07 01:45:35;;;;;;;3.45;3.15;;;;;;;14.63;100.00;101839.53;1027182;28;20449;-53
2023/09/07 01:46:07;;;;;;;9.45;4.07;;;;;;;14.59;100.00;101841.03;1031573;28;20038;-54
2023/09/07 01:46:38;;;;;;;6.05;4.07;;;;;;;14.53;100.00;101840.88;1031470;28;20042;-52
2023/09/07 01:47:10;;;;;;;11.60;4.10;;;;;;;14.62;100.00;101843.28;1031793;28;20046;-53
2023/09/07 01:47:45;;;;;;;4.40;3.60;;;;;;;14.70;100.00;101843.81;1027241;28;20240;-49
2023/09/07 01:48:17;;;;;;;8.90;3.85;;;;;;;14.60;100.00;101840.00;1023463;29;20506;-53
2023/09/07 01:48:48;;;;;;;3.28;3.08;;;;;;;14.75;100.00;101837.78;1022758;29;20108;-53
2023/09/07 01:49:20;;;;;;;3.05;2.75;;;;;;;14.72;100.00;101847.09;1023179;28;20846;-52
2023/09/07 01:49:52;;;;;;;3.55;3.17;;;;;;;14.64;100.00;101843.88;1027747;28;20042;-53
2023/09/07 01:50:25;;;;;;;4.03;3.42;;;;;;;14.50;100.00;101838.59;1026593;28;20043;-53
2023/09/07 01:50:59;;;;;;;4.13;3.25;;;;;;;14.56;100.00;101838.78;1027197;28;20090;-54
2023/09/07 01:51:34;;;;;;;5.32;3.50;;;;;;;14.63;100.00;101842.22;1027373;28;20043;-52
2023/09/07 01:52:06;;;;;;;3.08;2.83;;;;;;;14.58;100.00;101842.06;1024715;28;20457;-52
2023/09/07 01:52:38;;;;;;;2.40;2.20;;;;;;;14.64;100.00;101846.56;1028314;28;20135;-53
2023/09/07 01:53:18;;;;;;;4.78;2.17;;;;;;;14.62;100.00;101843.28;1031368;28;20085;-52
2023/09/07 01:53:49;;;;;;;2.58;2.10;;;;;;;14.60;100.00;101845.34;1032542;28;20046;-53
2023/09/07 01:54:21;;;;;;;2.45;2.25;;;;;;;14.59;100.00;101839.16;1031056;28;20090;-53
2023/09/07 01:54:55;;;;;;;3.40;3.17;;;;;;;14.51;100.00;101847.47;1027498;28;20070;-51
2023/09/07 01:55:31;;;;;;;8.05;4.20;;;;;;;14.59;100.00;101843.72;1023275;29;20514;-53
2023/09/07 01:56:03;;;;;;;2.83;2.63;;;;;;;14.74;100.00;101846.88;1024383;28;20470;-53
2023/09/07 01:56:36;;;;;;;3.05;2.75;;;;;;;14.77;100.00;101846.44;1027266;28;20043;-50
2023/09/07 01:57:08;;;;;;;3.75;3.10;;;;;;;14.58;100.00;101842.06;1023592;28;20159;-51
2023/09/07 01:57:43;;;;;;;2.28;2.08;;;;;;;14.58;100.00;101842.06;1023338;29;20047;-52
2023/09/07 01:58:15;;;;;;;3.67;3.00;;;;;;;14.51;100.00;101840.22;1012262;29;20052;-53
2023/09/07 01:58:47;;;;;;;3.33;3.03;;;;;;;14.54;100.00;101844.38;1019060;29;20083;-53
2023/09/07 01:59:21;;;;;;;3.80;3.40;;;;;;;14.46;100.00;101840.06;1020331;29;20047;-55
2023/09/07 01:59:52;;;;;;;4.32;3.15;;;;;;;14.38;100.00;101848.34;1020544;28;20088;-55
2023/09/07 02:00:24;;;;;;;3.70;3.40;;;;;;;14.43;100.00;101845.88;1022968;29;20051;-55
2023/09/07 02:00:59;;;;;;;4.97;2.85;;;;;;;14.56;100.00;101842.28;1023523;28;20129;-55
2023/09/07 02:01:34;;;;;;;2.83;2.63;;;;;;;14.67;100.00;101851.47;1028280;28;20413;-55
2023/09/07 02:02:05;;;;;;;3.15;2.88;;;;;;;14.60;100.00;101845.34;1030890;28;20035;-55
2023/09/07 02:02:38;;;;;;;3.60;3.30;;;;;;;14.51;100.00;101848.28;1035195;28;20500;-54
2023/09/07 02:03:21;;;;;;;3.15;2.95;;;;;;;14.67;100.00;101846.13;1037121;28;20046;-52
2023/09/07 02:03:56;;;;;;;3.03;2.72;;;;;;;14.73;100.00;101854.09;1031132;28;20051;-52
2023/09/07 02:04:28;;;;;;;3.45;3.15;;;;;;;14.56;100.00;101849.50;1030903;28;20054;-52
2023/09/07 02:04:59;;;;;;;4.35;3.95;;;;;;;14.51;100.00;101845.59;1027283;28;20054;-53
2023/09/07 02:05:34;;;;;;;3.50;3.08;;;;;;;14.45;100.00;101854.50;1027126;28;20043;-53
2023/09/07 02:06:06;;;;;;;3.85;3.47;;;;;;;14.46;100.00;101850.78;1023521;28;20130;-53
2023/09/07 02:06:37;;;;;;;3.85;3.53;;;;;;;14.59;100.00;101851.75;1027820;28;20053;-52
2023/09/07 02:07:09;;;;;;;2.95;2.38;;;;;;;14.65;100.00;101848.19;1031946;28;20520;-55
2023/09/07 02:07:41;;;;;;;2.97;2.70;;;;;;;14.61;100.00;101849.69;1032290;28;20047;-52
2023/09/07 02:08:13;;;;;;;2.65;2.22;;;;;;;14.67;100.00;101851.47;1036384;28;20083;-55
2023/09/07 02:08:45;;;;;;;3.17;2.97;;;;;;;14.53;100.00;101851.59;1031808;28;20046;-52
2023/09/07 02:09:16;;;;;;;3.45;3.15;;;;;;;14.53;100.00;101848.09;1026447;28;20133;-53
2023/09/07 02:09:48;;;;;;;4.07;3.47;;;;;;;14.56;100.00;101854.88;1029095;28;20075;-53
2023/09/07 02:10:20;;;;;;;5.00;4.22;;;;;;;14.72;100.00;101859.69;1028975;28;20124;-54
2023/09/07 02:10:51;;;;;;;3.88;3.45;;;;;;;14.85;100.00;101851.53;1027144;28;20542;-55
2023/09/07 02:11:23;;;;;;;3.20;2.90;;;;;;;14.91;100.00;101847.97;1023662;28;20039;-53
2023/09/07 02:11:55;;;;;;;4.82;3.17;;;;;;;14.82;100.00;101851.97;1024535;29;20087;-55
2023/09/07 02:12:27;;;;;;;3.60;3.30;;;;;;;14.80;100.00;101846.03;1023501;28;20079;-52
2023/09/07 02:12:58;;;;;;;5.35;3.17;;;;;;;14.72;100.00;101849.78;1027287;28;20042;-53
2023/09/07 02:13:30;;;;;;;5.32;3.20;;;;;;;14.76;100.00;101847.47;1028501;28;20043;-53
2023/09/07 02:14:02;;;;;;;4.13;3.60;;;;;;;14.71;100.00;101852.69;1028443;28;20035;-54
2023/09/07 02:14:34;;;;;;;3.50;2.65;;;;;;;14.57;100.00;101848.47;1031992;28;20046;-53
2023/09/07 02:15:06;;;;;;;3.25;3.00;;;;;;;14.50;100.00;101846.63;1033007;28;20073;-54
2023/09/07 02:15:38;;;;;;;6.60;3.38;;;;;;;14.41;100.00;101839.88;1034622;28;20061;-53
2023/09/07 02:16:11;;;;;;;3.53;3.20;;;;;;;14.46;100.00;101847.28;1035631;28;20508;-53
2023/09/07 02:16:42;;;;;;;6.32;3.45;;;;;;;14.45;100.00;101846.47;1031282;28;20058;-53
2023/09/07 02:17:17;;;;;;;3.40;3.10;;;;;;;14.38;100.00;101843.00;1028132;28;20039;-52
2023/09/07 02:17:49;;;;;;;3.20;2.90;;;;;;;14.44;100.00;101847.50;1025421;28;20047;-52
2023/09/07 02:18:25;;;;;;;3.45;3.22;;;;;;;14.36;100.00;101845.06;1029208;28;20074;-53
2023/09/07 02:19:12;;;;;;;3.30;3.00;;;;;;;14.30;100.00;101845.13;1030371;28;20051;-53
2023/09/07 02:19:45;;;;;;;4.68;2.65;;;;;;;14.33;100.00;101850.03;1027892;28;20133;-53
2023/09/07 02:20:18;;;;;;;3.42;3.13;;;;;;;14.14;100.00;101852.63;1022855;29;20191;-52
2023/09/07 02:20:50;;;;;;;4.30;2.63;;;;;;;14.34;100.00;101841.78;1024691;28;20047;-53
2023/09/07 02:21:22;;;;;;;3.65;3.35;;;;;;;14.34;100.00;101846.31;1027861;28;20046;-53
2023/09/07 02:21:54;;;;;;;4.07;3.47;;;;;;;14.20;100.00;101848.25;1032047;28;20065;-52
2023/09/07 02:22:28;;;;;;;3.40;3.10;;;;;;;14.25;100.00;101842.28;1031159;28;20078;-53
2023/09/07 02:23:00;;;;;;;4.10;3.80;;;;;;;14.25;100.00;101848.44;1031290;28;20046;-55
2023/09/07 02:23:32;;;;;;;3.75;3.42;;;;;;;14.34;100.00;101846.31;1031780;28;20540;-54
2023/09/07 02:24:07;;;;;;;3.08;2.50;;;;;;;14.39;100.00;101847.31;1032408;28;20509;-54
2023/09/07 02:24:39;;;;;;;3.67;2.22;;;;;;;14.42;100.00;101849.56;1028777;28;20062;-53
2023/09/07 02:25:11;;;;;;;2.88;2.67;;;;;;;14.32;100.00;101849.22;1032266;28;20046;-55
2023/09/07 02:25:43;;;;;;;4.22;3.00;;;;;;;14.30;100.00;101845.94;1031572;28;20050;-52
2023/09/07 02:26:15;;;;;;;5.90;2.88;;;;;;;14.30;100.00;101839.75;1027209;28;20402;-53
2023/09/07 02:26:46;;;;;;;4.95;2.60;;;;;;;14.29;100.00;101841.63;1028286;28;20041;-55
2023/09/07 02:27:18;;;;;;;2.58;2.38;;;;;;;14.33;100.00;101842.00;1028501;28;20047;-55
2023/09/07 02:27:50;;;;;;;5.10;3.10;;;;;;;14.26;100.00;101844.72;1024183;28;20066;-53
2023/09/07 02:28:23;;;;;;;2.65;2.45;;;;;;;14.32;100.00;101838.50;1029035;28;20053;-53
2023/09/07 02:28:55;;;;;;;3.40;3.00;;;;;;;14.29;100.00;101838.13;1028306;28;20052;-52
2023/09/07 02:29:27;;;;;;;3.70;3.28;;;;;;;14.15;100.00;101840.03;1024148;28;20425;-53
2023/09/07 02:29:59;;;;;;;4.57;4.10;;;;;;;14.19;100.00;101841.25;1024157;29;20062;-55
2023/09/07 02:30:37;;;;;;;3.53;3.20;;;;;;;14.28;100.00;101839.97;1024757;28;20066;-53
2023/09/07 02:31:09;;;;;;;5.72;3.17;;;;;;;14.34;100.00;101841.78;1024710;28;20206;-53
2023/09/07 02:31:41;;;;;;;3.08;2.70;;;;;;;14.23;100.00;101834.41;1028925;28;20043;-53
2023/09/07 02:32:13;;;;;;;3.30;2.72;;;;;;;14.26;100.00;101839.38;1022852;29;20046;-53
2023/09/07 02:32:44;;;;;;;3.58;2.78;;;;;;;14.19;100.00;101841.25;1020458;29;20141;-53
2023/09/07 02:33:16;;;;;;;3.50;3.20;;;;;;;14.30;100.00;101837.91;1023333;29;20073;-55
2023/09/07 02:33:48;;;;;;;4.50;2.60;;;;;;;14.28;100.00;101837.31;1020842;28;20054;-55
2023/09/07 02:34:20;;;;;;;3.47;3.05;;;;;;;14.21;100.00;101836.50;1027724;28;20797;-55
2023/09/07 02:34:52;;;;;;;2.95;2.65;;;;;;;14.03;100.00;101833.75;1029160;28;20517;-55
2023/09/07 02:35:26;;;;;;;3.88;3.58;;;;;;;14.13;100.00;101834.09;1027940;28;20505;-53
2023/09/07 02:35:58;;;;;;;3.63;3.33;;;;;;;14.19;100.00;101841.25;1031909;28;20505;-55
2023/09/07 02:36:30;;;;;;;2.92;2.10;;;;;;;14.21;100.00;101831.13;1027319;28;20509;-54
2023/09/07 02:37:05;;;;;;;3.97;3.08;;;;;;;14.27;100.00;101834.84;1027640;28;20050;-55
2023/09/07 02:37:36;;;;;;;3.33;2.78;;;;;;;14.22;100.00;101833.59;1026812;28;20470;-54
2023/09/07 02:38:08;;;;;;;3.38;3.13;;;;;;;14.09;100.00;101833.69;1027287;28;20738;-55
2023/09/07 02:38:40;;;;;;;3.03;2.72;;;;;;;14.13;100.00;101828.72;1028052;28;20096;-55
2023/09/07 02:39:12;;;;;;;3.70;3.40;;;;;;;14.23;100.00;101831.75;1031437;28;20132;-55